createdAt,value
2023-01-13T00:04:27.211Z,18.49
2023-01-13T00:09:32.189Z,18.11
2023-01-13T00:14:37.988Z,17.51
2023-01-13T00:19:44.754Z,19.49
2023-01-13T00:24:49.566Z,17.52
2023-01-13T00:29:55.291Z,17.75
2023-01-13T00:35:00.118Z,17.54
2023-01-13T00:40:05.254Z,17.12
2023-01-13T00:45:09.089Z,17.32
2023-01-13T00:50:15.740Z,17.64
2023-01-13T00:55:20.534Z,17.99
2023-01-13T01:00:24.055Z,16.02
2023-01-13T01:05:27.558Z,17.30
2023-01-13T01:10:32.361Z,14.11
2023-01-13T01:15:35.755Z,13.60
2023-01-13T01:20:39.335Z,13.56
2023-01-13T01:25:46.470Z,14.20
2023-01-13T01:30:51.423Z,14.40
2023-01-13T01:36:01.578Z,17.61
2023-01-13T01:41:06.662Z,17.22
2023-01-13T01:46:10.176Z,17.02
2023-01-13T01:51:14.837Z,17.70
2023-01-13T01:56:21.366Z,17.92
2023-01-13T02:01:24.920Z,17.57
2023-01-13T02:06:29.660Z,16.15
2023-01-13T02:11:54.845Z,13.96
2023-01-13T02:17:13.351Z,12.90
2023-01-13T02:22:30.274Z,12.66
2023-01-13T02:27:54.832Z,13.03
2023-01-13T02:33:10.923Z,12.59
2023-01-13T02:38:17.163Z,12.46
2023-01-13T02:43:43.167Z,12.57
2023-01-13T02:48:55.362Z,12.70
2023-01-13T02:54:03.020Z,12.66
2023-01-13T02:59:07.689Z,12.75
2023-01-13T03:04:25.985Z,24.33
2023-01-13T03:09:41.050Z,13.59
2023-01-13T03:14:54.556Z,14.34
2023-01-13T03:20:03.967Z,24.47
2023-01-13T03:25:13.477Z,16.59
2023-01-13T03:30:17.596Z,13.19
2023-01-13T03:35:24.878Z,13.74
2023-01-13T03:40:34.745Z,22.28
2023-01-13T03:45:41.583Z,24.95
2023-01-13T03:50:48.409Z,14.19
2023-01-13T03:55:58.185Z,12.82
2023-01-13T04:01:06.937Z,23.10
2023-01-13T04:06:16.418Z,12.96
2023-01-13T04:11:28.610Z,12.85
2023-01-13T04:16:32.955Z,12.69
2023-01-13T04:21:36.888Z,12.42
2023-01-13T04:26:43.978Z,24.20
2023-01-13T04:31:47.433Z,12.64
2023-01-13T04:36:50.839Z,13.22
2023-01-13T04:42:02.633Z,13.05
2023-01-13T04:47:06.520Z,13.73
2023-01-13T04:52:09.966Z,15.48
2023-01-13T04:57:14.836Z,15.73
2023-01-13T05:02:19.990Z,13.00
2023-01-13T05:07:23.501Z,13.44
2023-01-13T05:12:45.789Z,12.17
2023-01-13T05:17:51.699Z,11.28
2023-01-13T05:23:14.615Z,11.26
2023-01-13T05:28:19.390Z,13.03
2023-01-13T05:33:22.872Z,14.78
2023-01-13T05:38:28.652Z,20.02
2023-01-13T05:43:34.847Z,19.13
2023-01-13T05:48:39.873Z,17.14
2023-01-13T05:53:48.060Z,19.79
2023-01-13T05:58:52.845Z,16.22
2023-01-13T06:03:56.253Z,14.52
2023-01-13T06:09:01.938Z,14.22
2023-01-13T06:14:09.123Z,16.47
2023-01-13T06:19:13.240Z,19.30
2023-01-13T06:24:16.637Z,14.81
2023-01-13T06:29:21.408Z,15.92
2023-01-13T06:34:25.049Z,15.37
2023-01-13T06:39:32.249Z,17.17
2023-01-13T06:44:37.036Z,15.37
2023-01-13T06:49:40.448Z,16.00
2023-01-13T06:54:43.860Z,15.46
2023-01-13T06:59:50.504Z,17.13
2023-01-13T07:04:54.059Z,15.89
2023-01-13T07:09:57.482Z,17.66
2023-01-13T07:15:19.513Z,16.93
2023-01-13T07:20:25.629Z,16.40
2023-01-13T07:25:29.061Z,16.91
2023-01-13T07:30:35.979Z,18.76
2023-01-13T07:35:39.437Z,16.77
2023-01-13T07:40:45.141Z,17.00
2023-01-13T07:45:56.192Z,17.99
2023-01-13T07:51:02.319Z,17.40
2023-01-13T07:56:08.879Z,16.22
2023-01-13T08:01:20.401Z,15.27
2023-01-13T08:06:23.911Z,17.35
2023-01-13T08:11:27.400Z,15.11
2023-01-13T08:16:34.035Z,13.99
2023-01-13T08:21:37.460Z,12.68
2023-01-13T08:26:40.907Z,12.93
2023-01-13T08:31:45.783Z,12.33
2023-01-13T08:36:50.494Z,12.51
2023-01-13T08:41:56.881Z,11.96
2023-01-13T08:47:01.828Z,14.18
2023-01-13T08:52:05.757Z,12.30
2023-01-13T08:57:11.799Z,11.33
2023-01-13T09:02:18.043Z,13.24
2023-01-13T09:07:21.622Z,13.63
2023-01-13T09:12:44.508Z,15.15
2023-01-13T09:17:49.275Z,14.99
2023-01-13T09:22:56.384Z,13.39
2023-01-13T09:28:02.123Z,15.64
2023-01-13T09:33:20.947Z,15.05
2023-01-13T09:38:24.457Z,17.78
2023-01-13T09:43:53.414Z,17.50
2023-01-13T09:48:59.818Z,17.71
2023-01-13T09:54:09.218Z,20.21
2023-01-13T09:59:13.400Z,19.32
2023-01-13T10:04:18.403Z,34.77
2023-01-13T10:09:27.596Z,38.33
2023-01-13T10:14:36.225Z,22.90
2023-01-13T10:19:51.566Z,18.22
2023-01-13T10:25:20.577Z,17.10
2023-01-13T10:30:27.594Z,18.19
2023-01-13T10:35:53.454Z,17.42
2023-01-13T10:41:00.730Z,17.56
2023-01-13T10:46:13.860Z,19.79
2023-01-13T10:51:23.182Z,20.31
2023-01-13T10:56:31.136Z,18.05
2023-01-13T11:01:34.617Z,18.02
2023-01-13T11:06:46.592Z,15.74
2023-01-13T11:11:55.293Z,15.98
2023-01-13T11:17:01.392Z,17.33
2023-01-13T11:22:12.715Z,18.73
2023-01-13T11:27:19.753Z,17.41
2023-01-13T11:32:25.879Z,18.10
2023-01-13T11:37:33.882Z,19.09
2023-01-13T11:48:58.543Z,34.52
2023-01-13T11:54:24.553Z,20.29
2023-01-13T11:59:40.845Z,19.30
2023-01-13T12:04:55.359Z,14.12
2023-01-13T12:10:12.984Z,15.62
2023-01-13T12:15:43.365Z,14.18
2023-01-13T12:20:58.547Z,13.76
2023-01-13T12:26:07.851Z,13.32
2023-01-13T12:31:12.380Z,15.40
2023-01-13T12:36:25.325Z,15.94
2023-01-13T12:41:36.887Z,14.89
2023-01-13T12:46:58.165Z,14.88
2023-01-13T12:52:15.350Z,15.12
2023-01-13T12:57:22.839Z,15.12
2023-01-13T13:02:44.012Z,16.63
2023-01-13T13:07:49.652Z,15.29
2023-01-13T13:13:19.684Z,16.37
2023-01-13T13:18:28.529Z,14.87
2023-01-13T13:23:52.665Z,15.32
2023-01-13T13:29:26.263Z,16.78
2023-01-13T13:34:38.691Z,15.73
2023-01-13T13:40:03.056Z,14.85
2023-01-13T13:45:34.369Z,19.97
2023-01-13T13:50:48.150Z,19.56
2023-01-13T13:55:56.171Z,19.26
2023-01-13T14:01:01.436Z,19.42
2023-01-13T14:06:07.777Z,19.03
2023-01-13T14:11:28.369Z,18.30
2023-01-13T14:16:33.435Z,18.58
2023-01-13T14:21:41.126Z,19.43
2023-01-13T14:26:44.566Z,20.42
2023-01-13T14:31:48.960Z,19.17
2023-01-13T14:36:54.505Z,26.83
2023-01-13T14:41:58.035Z,17.99
2023-01-13T14:47:05.765Z,18.54
2023-01-13T14:52:16.715Z,27.20
2023-01-13T14:57:27.696Z,20.22
2023-01-13T15:02:40.270Z,19.16
2023-01-13T15:07:50.057Z,20.07
2023-01-13T15:12:55.513Z,26.52
2023-01-13T15:17:58.912Z,21.15
2023-01-13T15:23:03.719Z,21.21
2023-01-13T15:28:07.977Z,27.89
2023-01-13T15:33:12.766Z,29.62
2023-01-13T15:38:22.408Z,21.41
2023-01-13T15:43:43.414Z,22.22
2023-01-13T15:48:46.811Z,20.58
2023-01-13T15:54:00.635Z,21.79
2023-01-13T15:59:06.593Z,24.87
2023-01-13T16:04:15.142Z,28.13
2023-01-13T16:09:19.960Z,28.38
2023-01-13T16:14:23.375Z,28.57
2023-01-13T16:19:26.827Z,26.48
2023-01-13T16:24:31.734Z,32.87
2023-01-13T16:29:35.176Z,26.30
2023-01-13T16:34:40.793Z,24.02
2023-01-13T16:39:50.273Z,27.74
2023-01-13T16:44:56.170Z,27.13
2023-01-13T16:49:59.890Z,21.16
2023-01-13T16:55:07.386Z,22.48
2023-01-13T17:00:13.775Z,21.17
2023-01-13T17:05:17.484Z,25.12
2023-01-13T17:10:24.457Z,20.22
2023-01-13T17:15:27.974Z,19.46
2023-01-13T17:20:31.452Z,19.25
2023-01-13T17:25:38.576Z,32.16
2023-01-13T17:30:44.851Z,23.13
2023-01-13T17:35:48.321Z,21.22
2023-01-13T17:40:53.181Z,19.85
2023-01-13T17:46:07.919Z,20.89
2023-01-13T17:51:13.723Z,20.82
2023-01-13T17:56:20.626Z,32.37
2023-01-13T18:01:30.896Z,24.56
2023-01-13T18:06:34.938Z,21.23
2023-01-13T18:11:40.065Z,20.65
2023-01-13T18:16:43.710Z,20.57
2023-01-13T18:22:07.556Z,19.85
2023-01-13T18:27:23.111Z,19.94
2023-01-13T18:32:33.826Z,22.98
2023-01-13T18:37:38.802Z,25.30
2023-01-13T18:42:54.124Z,25.96
2023-01-13T18:47:59.104Z,22.98
2023-01-13T18:53:03.005Z,31.11
2023-01-13T18:58:09.372Z,27.63
2023-01-13T19:03:13.137Z,27.00
2023-01-13T19:08:16.771Z,26.97
2023-01-13T19:13:23.871Z,27.02
2023-01-13T19:18:27.339Z,24.89
2023-01-13T19:23:30.883Z,25.80
2023-01-13T19:28:35.895Z,23.99
2023-01-13T19:33:40.684Z,24.00
2023-01-13T19:38:46.632Z,24.76
2023-01-13T19:44:11.252Z,25.42
2023-01-13T19:49:14.724Z,25.89
2023-01-13T19:54:18.435Z,30.24
2023-01-13T19:59:29.085Z,26.36
2023-01-13T20:04:38.445Z,26.39
2023-01-13T20:09:43.323Z,25.72
2023-01-13T20:14:48.662Z,28.44
2023-01-13T20:19:54.559Z,30.10
2023-01-13T20:25:00.090Z,26.16
2023-01-13T20:30:09.524Z,24.10
2023-01-13T20:35:13.022Z,21.76
2023-01-13T20:40:18.095Z,18.86
2023-01-13T20:45:26.167Z,17.57
2023-01-13T20:50:29.878Z,19.60
2023-01-13T20:55:33.315Z,20.88
2023-01-13T21:00:38.269Z,17.33
2023-01-13T21:05:41.844Z,16.95
2023-01-13T21:10:47.388Z,17.72
2023-01-13T21:15:52.937Z,22.29
2023-01-13T21:21:11.645Z,17.19
2023-01-13T21:26:17.066Z,15.78
2023-01-13T21:31:22.045Z,16.50
2023-01-13T21:36:26.049Z,16.55
2023-01-13T21:41:43.411Z,17.01
2023-01-13T21:47:20.319Z,16.73
2023-01-13T21:52:25.530Z,16.34
2023-01-13T21:57:32.008Z,15.03
2023-01-13T22:02:36.957Z,14.88
2023-01-13T22:07:41.241Z,16.22
2023-01-13T22:12:47.577Z,14.97
2023-01-13T22:17:52.786Z,15.99
2023-01-13T22:22:56.145Z,17.25
2023-01-13T22:28:03.783Z,17.58
2023-01-13T22:33:11.014Z,16.53
2023-01-13T22:38:14.549Z,19.86
2023-01-13T22:43:17.945Z,22.63
2023-01-13T22:48:24.944Z,19.85
2023-01-13T22:53:31.346Z,14.84
2023-01-13T22:58:37.341Z,15.67
2023-01-13T23:03:42.404Z,18.85
2023-01-13T23:08:46.629Z,21.14
2023-01-13T23:13:50.059Z,16.47
2023-01-13T23:18:57.372Z,15.35
2023-01-13T23:24:01.178Z,15.28
2023-01-13T23:29:06.123Z,12.34
2023-01-13T23:34:10.928Z,32.12
2023-01-13T23:39:14.406Z,10.52
2023-01-13T23:44:17.868Z,11.15
2023-01-13T23:49:22.705Z,10.78
2023-01-13T23:54:29.226Z,11.81
2023-01-13T23:59:32.622Z,14.78
